Time;durP1;ratioP1;P1;durP2;ratioP2;P2;SDS_P1;SDS_P2;PMS_P1;PMS_P2;Temp;Humidity;BMP_temperature;BMP_pressure;BME280_temperature;BME280_humidity;BME280_pressure;Samples;Min_cycle;Max_cycle;Signal;HPM_P1;HPM_P2
2022/08/07 00:00:21;;;;;;;;;;;11.90;99.90;;;;;;4977440;28;19972;-69
2022/08/07 00:02:47;;;;;;;;;;;11.90;99.90;;;;;;4965536;28;19980;-70
2022/08/07 00:05:12;;;;;;;;;;;11.90;99.90;;;;;;4953553;28;19932;-69
2022/08/07 00:07:38;;;;;;;;;;;11.90;99.90;;;;;;4979492;28;19917;-70
2022/08/07 00:10:03;;;;;;;;;;;11.90;99.90;;;;;;4979081;28;19909;-69
2022/08/07 00:12:30;;;;;;;;;;;11.80;99.90;;;;;;4978732;28;19937;-70
2022/08/07 00:14:56;;;;;;;;;;;11.80;99.90;;;;;;4973581;28;19964;-70
2022/08/07 00:17:21;;;;;;;;;;;11.70;99.90;;;;;;4978924;28;19943;-70
2022/08/07 00:19:47;;;;;;;;;;;11.70;99.90;;;;;;4979194;28;20069;-70
2022/08/07 00:22:12;;;;;;;;;;;11.70;99.90;;;;;;4977971;28;19996;-69
2022/08/07 00:24:38;;;;;;;;;;;11.60;99.90;;;;;;4973831;28;19919;-70
2022/08/07 00:27:04;;;;;;;;;;;11.60;99.90;;;;;;4977685;28;19917;-70
2022/08/07 00:29:29;;;;;;;;;;;11.50;99.90;;;;;;4959974;28;19922;-70
2022/08/07 00:31:58;;;;;;;;;;;11.50;99.90;;;;;;4977553;28;19914;-69
2022/08/07 00:34:27;;;;;;;;;;;11.50;99.90;;;;;;4960182;28;19921;-70
2022/08/07 00:36:52;;;;;;;;;;;11.40;99.90;;;;;;4978709;28;19933;-69
2022/08/07 00:39:21;;;;;;;;;;;11.50;99.90;;;;;;4978431;28;19910;-69
2022/08/07 00:41:56;;;;;;;;;;;11.50;99.90;;;;;;4977405;28;19913;-69
2022/08/07 00:44:23;;;;;;;;;;;11.60;99.90;;;;;;4978070;28;19910;-70
2022/08/07 00:46:48;;;;;;;;;;;11.70;99.90;;;;;;4978518;28;19957;-70
2022/08/07 00:49:14;;;;;;;;;;;11.70;99.90;;;;;;4976886;28;20505;-69
2022/08/07 00:51:39;;;;;;;;;;;11.70;99.90;;;;;;4975356;28;19988;-70
2022/08/07 00:54:06;;;;;;;;;;;11.70;99.90;;;;;;4977596;28;20193;-69
2022/08/07 00:56:32;;;;;;;;;;;11.70;99.90;;;;;;4977041;28;20297;-70
2022/08/07 00:58:58;;;;;;;;;;;11.60;99.90;;;;;;4977146;28;20015;-70
2022/08/07 01:01:24;;;;;;;;;;;11.60;99.90;;;;;;4977752;28;20044;-70
2022/08/07 01:03:53;;;;;;;;;;;11.50;99.90;;;;;;4975721;28;19993;-69
2022/08/07 01:06:19;;;;;;;;;;;11.40;99.90;;;;;;4976035;28;20300;-70
2022/08/07 01:08:45;;;;;;;;;;;11.40;99.90;;;;;;4976884;28;19914;-70
2022/08/07 01:11:11;;;;;;;;;;;11.30;99.90;;;;;;4975355;28;19923;-70
2022/08/07 01:13:37;;;;;;;;;;;11.20;99.90;;;;;;4968093;28;20365;-70
2022/08/07 01:16:04;;;;;;;;;;;11.20;99.90;;;;;;4975326;28;19914;-70
2022/08/07 01:18:29;;;;;;;;;;;11.20;99.90;;;;;;4976581;28;19964;-69
2022/08/07 01:21:14;;;;;;;;;;;11.10;99.90;;;;;;4974806;28;19909;-70
2022/08/07 01:23:41;;;;;;;;;;;11.10;99.90;;;;;;4977309;28;20396;-69
2022/08/07 01:26:08;;;;;;;;;;;11.00;99.90;;;;;;4974012;28;20417;-69
2022/08/07 01:28:34;;;;;;;;;;;11.00;99.90;;;;;;4959490;28;19917;-69
2022/08/07 01:30:59;;;;;;;;;;;10.90;99.90;;;;;;4975928;28;19976;-69
2022/08/07 01:33:25;;;;;;;;;;;10.80;99.90;;;;;;4967013;28;20742;-69
2022/08/07 01:35:51;;;;;;;;;;;10.70;99.90;;;;;;4970959;28;19913;-70
2022/08/07 01:38:17;;;;;;;;;;;10.70;99.90;;;;;;4958801;28;20009;-69
2022/08/07 01:40:42;;;;;;;;;;;10.60;99.90;;;;;;4975822;28;19932;-70
2022/08/07 01:43:08;;;;;;;;;;;10.60;99.90;;;;;;4975889;28;20358;-69
2022/08/07 01:45:34;;;;;;;;;;;10.60;99.90;;;;;;4975266;28;19925;-70
2022/08/07 01:47:59;;;;;;;;;;;10.50;99.90;;;;;;4975644;28;20401;-70
2022/08/07 01:50:26;;;;;;;;;;;10.40;99.90;;;;;;4975847;28;19921;-69
2022/08/07 01:52:52;;;;;;;;;;;10.40;99.90;;;;;;4976458;28;19962;-69
2022/08/07 01:55:19;;;;;;;;;;;10.40;99.90;;;;;;4975563;28;19918;-69
2022/08/07 01:57:46;;;;;;;;;;;10.40;99.90;;;;;;4973543;28;19929;-69
2022/08/07 02:00:12;;;;;;;;;;;10.40;99.90;;;;;;4974908;28;19932;-69
2022/08/07 02:02:42;;;;;;;;;;;10.30;99.90;;;;;;4961259;28;20403;-70
2022/08/07 02:05:09;;;;;;;;;;;10.30;99.90;;;;;;4975006;28;20039;-69
2022/08/07 02:07:49;;;;;;;;;;;10.20;99.90;;;;;;4974451;28;19933;-69
2022/08/07 02:10:16;;;;;;;;;;;10.20;99.90;;;;;;4973338;28;19925;-70
2022/08/07 02:12:43;;;;;;;;;;;10.20;99.90;;;;;;4975575;28;20285;-70
2022/08/07 02:15:10;;;;;;;;;;;10.20;99.90;;;;;;4964666;28;20743;-70
2022/08/07 02:17:37;;;;;;;;;;;10.10;99.90;;;;;;4975988;28;19918;-70
2022/08/07 02:20:03;;;;;;;;;;;10.10;99.90;;;;;;4974827;28;19910;-69
2022/08/07 02:22:29;;;;;;;;;;;10.10;99.90;;;;;;4975630;28;20482;-70
2022/08/07 02:24:56;;;;;;;;;;;10.00;99.90;;;;;;4972874;28;19910;-70
2022/08/07 02:27:22;;;;;;;;;;;10.00;99.90;;;;;;4975460;28;20253;-69
2022/08/07 02:29:49;;;;;;;;;;;9.90;99.90;;;;;;4973812;28;20004;-70
2022/08/07 02:32:16;;;;;;;;;;;9.90;99.90;;;;;;4956862;28;19968;-69
2022/08/07 02:34:43;;;;;;;;;;;9.80;99.90;;;;;;4974540;28;19918;-70
2022/08/07 02:37:08;;;;;;;;;;;9.80;99.90;;;;;;4975010;28;19913;-69
2022/08/07 02:39:35;;;;;;;;;;;9.80;99.90;;;;;;4975113;28;19921;-70
2022/08/07 02:42:01;;;;;;;;;;;9.80;99.90;;;;;;4974056;28;20463;-70
2022/08/07 02:44:28;;;;;;;;;;;9.80;99.90;;;;;;4974636;28;19917;-70
2022/08/07 02:46:55;;;;;;;;;;;9.80;99.90;;;;;;4975807;28;19936;-70
2022/08/07 02:49:20;;;;;;;;;;;9.80;99.90;;;;;;4974052;28;20211;-70
2022/08/07 02:51:46;;;;;;;;;;;9.80;99.90;;;;;;4971175;28;19941;-69
2022/08/07 02:54:13;;;;;;;;;;;9.80;99.90;;;;;;4964454;28;20009;-70
2022/08/07 02:56:40;;;;;;;;;;;9.80;99.90;;;;;;4974749;28;19960;-69
2022/08/07 02:59:09;;;;;;;;;;;9.80;99.90;;;;;;4974423;28;20087;-70
2022/08/07 03:01:37;;;;;;;;;;;9.80;99.90;;;;;;4972845;28;20004;-70
2022/08/07 03:04:04;;;;;;;;;;;9.80;99.90;;;;;;4972230;28;19937;-69
2022/08/07 03:06:30;;;;;;;;;;;9.80;99.90;;;;;;4975428;28;19926;-70
2022/08/07 03:08:56;;;;;;;;;;;9.80;99.90;;;;;;4974232;28;19980;-69
2022/08/07 03:11:21;;;;;;;;;;;9.70;99.90;;;;;;4975600;28;19909;-69
2022/08/07 03:13:47;;;;;;;;;;;9.70;99.90;;;;;;4974730;28;19973;-70
2022/08/07 03:16:13;;;;;;;;;;;9.70;99.90;;;;;;4957775;28;20008;-69
2022/08/07 03:18:38;;;;;;;;;;;9.60;99.90;;;;;;4973532;28;20242;-70
2022/08/07 03:21:05;;;;;;;;;;;9.60;99.90;;;;;;4974636;28;19924;-70
2022/08/07 03:23:31;;;;;;;;;;;9.60;99.90;;;;;;4973718;28;19939;-70
2022/08/07 03:25:58;;;;;;;;;;;9.50;99.90;;;;;;4974436;28;19914;-70
2022/08/07 03:28:24;;;;;;;;;;;9.50;99.90;;;;;;4976193;28;19925;-69
2022/08/07 03:31:17;;;;;;;;;;;9.50;99.90;;;;;;4977140;28;19914;-69
2022/08/07 03:33:37;;;;;;;;;;;9.40;99.90;;;;;;4975107;28;20051;-70
2022/08/07 03:36:03;;;;;;;;;;;9.40;99.90;;;;;;4965485;28;19960;-69
2022/08/07 03:38:28;;;;;;;;;;;9.30;99.90;;;;;;4978565;28;20003;-70
2022/08/07 03:40:55;;;;;;;;;;;9.30;99.90;;;;;;4956946;28;19914;-69
2022/08/07 03:43:20;;;;;;;;;;;9.30;99.90;;;;;;4976067;28;19914;-70
2022/08/07 03:45:46;;;;;;;;;;;9.30;99.90;;;;;;4978741;28;19970;-70
2022/08/07 03:48:12;;;;;;;;;;;9.30;99.90;;;;;;4978690;28;19910;-69
2022/08/07 03:50:37;;;;;;;;;;;9.30;99.90;;;;;;4976972;28;20243;-70
2022/08/07 03:53:03;;;;;;;;;;;9.30;99.90;;;;;;4979039;28;19913;-69
2022/08/07 03:55:29;;;;;;;;;;;9.40;99.90;;;;;;4978648;28;19913;-70
2022/08/07 03:57:56;;;;;;;;;;;9.50;99.90;;;;;;4980083;28;20317;-70
2022/08/07 04:00:21;;;;;;;;;;;9.50;99.90;;;;;;4978432;28;20294;-70
2022/08/07 04:02:47;;;;;;;;;;;9.60;99.90;;;;;;4978063;28;20176;-70
2022/08/07 04:05:13;;;;;;;;;;;9.60;99.90;;;;;;4980147;28;19925;-70
2022/08/07 04:07:43;;;;;;;;;;;9.60;99.90;;;;;;4982030;28;19914;-70
2022/08/07 04:10:08;;;;;;;;;;;9.60;99.90;;;;;;4943059;28;20378;-70
2022/08/07 04:12:34;;;;;;;;;;;9.50;99.90;;;;;;4978970;28;19941;-69
2022/08/07 04:14:59;;;;;;;;;;;9.50;99.90;;;;;;4979084;28;20130;-70
2022/08/07 04:17:25;;;;;;;;;;;9.40;99.90;;;;;;4978759;28;19914;-69
2022/08/07 04:19:51;;;;;;;;;;;9.30;99.90;;;;;;4976066;28;19909;-70
2022/08/07 04:22:17;;;;;;;;;;;9.30;99.90;;;;;;4981935;28;20016;-69
2022/08/07 04:24:42;;;;;;;;;;;9.30;99.90;;;;;;4986493;28;20480;-70
2022/08/07 04:27:08;;;;;;;;;;;9.20;99.90;;;;;;4978152;28;20207;-70
2022/08/07 04:29:34;;;;;;;;;;;9.10;99.90;;;;;;4960632;28;19909;-70
2022/08/07 04:32:00;;;;;;;;;;;9.10;99.90;;;;;;4978320;28;20328;-70
2022/08/07 04:34:25;;;;;;;;;;;9.10;99.90;;;;;;4971636;28;19972;-70
2022/08/07 04:36:51;;;;;;;;;;;9.10;99.90;;;;;;4959081;28;20390;-69
2022/08/07 04:39:16;;;;;;;;;;;9.00;99.90;;;;;;4975127;28;19914;-70
2022/08/07 04:41:42;;;;;;;;;;;9.00;99.90;;;;;;4978214;28;20379;-69
2022/08/07 04:44:08;;;;;;;;;;;8.90;99.90;;;;;;4978503;28;19910;-70
2022/08/07 04:46:48;;;;;;;;;;;8.90;99.90;;;;;;4978420;28;20380;-69
2022/08/07 04:49:23;;;;;;;;;;;8.80;99.90;;;;;;4976774;28;19958;-69
2022/08/07 04:52:07;;;;;;;;;;;8.80;99.90;;;;;;4977472;28;19910;-70
2022/08/07 04:54:35;;;;;;;;;;;8.80;99.90;;;;;;4976218;28;19921;-70
2022/08/07 04:57:03;;;;;;;;;;;8.80;99.90;;;;;;4967122;28;19914;-70
2022/08/07 04:59:47;;;;;;;;;;;8.90;99.90;;;;;;4972193;28;19967;-70
2022/08/07 05:02:19;;;;;;;;;;;9.00;99.90;;;;;;4977331;28;20294;-70
2022/08/07 05:04:52;;;;;;;;;;;9.00;99.90;;;;;;4977006;28;19913;-70
2022/08/07 05:07:18;;;;;;;;;;;9.10;99.90;;;;;;4975924;28;19949;-69
2022/08/07 05:09:50;;;;;;;;;;;9.10;99.90;;;;;;4976066;28;19914;-69
2022/08/07 05:12:22;;;;;;;;;;;9.10;99.90;;;;;;4975632;28;19914;-70
2022/08/07 05:14:50;;;;;;;;;;;9.10;99.90;;;;;;4978303;28;19982;-70
2022/08/07 05:17:17;;;;;;;;;;;9.20;99.90;;;;;;4958087;28;19916;-69
2022/08/07 05:19:48;;;;;;;;;;;9.20;99.90;;;;;;4975356;28;19914;-70
2022/08/07 05:22:16;;;;;;;;;;;9.30;99.90;;;;;;4958858;28;19969;-69
2022/08/07 05:24:42;;;;;;;;;;;9.40;99.90;;;;;;4962083;28;19914;-69
2022/08/07 05:27:08;;;;;;;;;;;9.50;99.90;;;;;;4958244;28;19933;-70
2022/08/07 05:29:37;;;;;;;;;;;9.50;99.90;;;;;;4965769;28;19914;-70
2022/08/07 05:32:05;;;;;;;;;;;9.60;99.90;;;;;;4976780;28;19918;-70
2022/08/07 05:34:30;;;;;;;;;;;9.60;99.90;;;;;;4949836;28;19922;-70
2022/08/07 05:36:56;;;;;;;;;;;9.70;99.90;;;;;;4957152;28;19969;-70
2022/08/07 05:39:22;;;;;;;;;;;9.80;99.90;;;;;;4974377;28;20384;-69
2022/08/07 05:41:49;;;;;;;;;;;9.90;99.90;;;;;;4971273;28;19969;-69
2022/08/07 05:44:16;;;;;;;;;;;10.00;99.90;;;;;;4965339;28;19921;-70
2022/08/07 05:46:42;;;;;;;;;;;10.00;99.90;;;;;;4977380;28;19910;-69
2022/08/07 05:49:10;;;;;;;;;;;10.10;99.90;;;;;;4976839;28;19917;-70
2022/08/07 05:51:36;;;;;;;;;;;10.10;99.90;;;;;;4977610;28;20033;-70
2022/08/07 05:54:02;;;;;;;;;;;10.20;99.90;;;;;;4974194;28;20008;-70
2022/08/07 05:56:29;;;;;;;;;;;10.30;99.90;;;;;;4975602;28;20131;-70
2022/08/07 05:58:55;;;;;;;;;;;10.40;99.90;;;;;;4972977;28;19913;-70
2022/08/07 06:01:22;;;;;;;;;;;10.50;99.90;;;;;;4973835;28;19972;-70
2022/08/07 06:03:51;;;;;;;;;;;10.50;99.90;;;;;;4973402;28;19917;-70
2022/08/07 06:06:17;;;;;;;;;;;10.60;99.90;;;;;;4976318;28;19988;-70
2022/08/07 06:08:43;;;;;;;;;;;10.80;99.90;;;;;;4971012;28;19914;-70
2022/08/07 06:11:10;;;;;;;;;;;10.90;99.90;;;;;;4976794;28;20000;-70
2022/08/07 06:13:36;;;;;;;;;;;11.10;99.90;;;;;;4965475;28;19930;-70
2022/08/07 06:16:02;;;;;;;;;;;11.20;99.90;;;;;;4968110;28;19929;-70
2022/08/07 06:18:29;;;;;;;;;;;11.30;99.90;;;;;;4976426;28;20393;-70
2022/08/07 06:20:54;;;;;;;;;;;11.50;99.90;;;;;;4974690;28;19937;-70
2022/08/07 06:23:20;;;;;;;;;;;11.60;99.90;;;;;;4955873;28;20304;-69
2022/08/07 06:25:45;;;;;;;;;;;11.70;99.90;;;;;;4974001;28;20238;-70
2022/08/07 06:28:11;;;;;;;;;;;11.80;99.90;;;;;;4973952;28;19930;-70
2022/08/07 06:30:38;;;;;;;;;;;11.90;99.90;;;;;;4972674;28;20431;-70
2022/08/07 06:33:04;;;;;;;;;;;12.00;99.90;;;;;;4957895;28;19922;-70
2022/08/07 06:35:30;;;;;;;;;;;12.10;99.90;;;;;;4971439;28;20161;-70
2022/08/07 06:37:57;;;;;;;;;;;12.30;99.90;;;;;;4972305;28;20282;-70
2022/08/07 06:40:22;;;;;;;;;;;12.40;99.90;;;;;;4971732;28;20391;-70
2022/08/07 06:42:49;;;;;;;;;;;12.50;99.90;;;;;;4969395;28;19910;-70
2022/08/07 06:45:21;;;;;;;;;;;12.70;99.90;;;;;;4966375;28;20400;-69
2022/08/07 06:47:47;;;;;;;;;;;12.80;99.90;;;;;;4971121;28;19972;-70
2022/08/07 06:50:12;;;;;;;;;;;13.00;99.90;;;;;;4951436;28;19909;-70
2022/08/07 06:52:40;;;;;;;;;;;13.10;99.90;;;;;;4971162;28;19992;-70
2022/08/07 06:55:14;;;;;;;;;;;13.30;99.90;;;;;;4967700;28;19914;-70
2022/08/07 06:57:41;;;;;;;;;;;13.40;99.90;;;;;;4961400;28;19988;-70
2022/08/07 07:00:07;;;;;;;;;;;13.60;99.90;;;;;;4975096;28;19925;-70
2022/08/07 07:02:33;;;;;;;;;;;13.70;99.90;;;;;;4976501;28;19949;-70
2022/08/07 07:04:59;;;;;;;;;;;13.90;99.90;;;;;;4973389;28;20177;-70
2022/08/07 07:07:24;;;;;;;;;;;13.90;99.90;;;;;;4972733;28;20369;-70
2022/08/07 07:09:51;;;;;;;;;;;14.10;99.90;;;;;;4969662;28;20082;-70
2022/08/07 07:12:17;;;;;;;;;;;14.20;99.90;;;;;;4953354;28;19913;-70
2022/08/07 07:14:48;;;;;;;;;;;14.40;99.90;;;;;;4969056;28;19928;-70
2022/08/07 07:17:22;;;;;;;;;;;14.50;99.90;;;;;;4974024;28;19914;-69
2022/08/07 07:19:49;;;;;;;;;;;14.70;99.90;;;;;;4925370;28;19917;-69
2022/08/07 07:22:15;;;;;;;;;;;14.90;99.90;;;;;;4973289;28;20313;-70
2022/08/07 07:24:41;;;;;;;;;;;15.10;99.90;;;;;;4954771;28;19961;-70
2022/08/07 07:27:08;;;;;;;;;;;15.30;99.90;;;;;;4974791;28;19972;-71
2022/08/07 07:29:37;;;;;;;;;;;15.50;99.90;;;;;;4973672;28;19949;-73
2022/08/07 07:32:05;;;;;;;;;;;15.50;99.90;;;;;;4976640;28;20268;-72
2022/08/07 07:34:31;;;;;;;;;;;15.60;99.90;;;;;;4974149;28;20017;-73
2022/08/07 07:36:59;;;;;;;;;;;15.70;99.90;;;;;;4974600;28;20282;-76
2022/08/07 07:39:25;;;;;;;;;;;15.80;99.90;;;;;;4974185;28;19934;-76
2022/08/07 07:41:51;;;;;;;;;;;16.10;99.90;;;;;;4970793;28;19920;-73
2022/08/07 07:44:18;;;;;;;;;;;16.30;99.90;;;;;;4973037;28;19913;-73
2022/08/07 07:46:44;;;;;;;;;;;16.50;99.90;;;;;;4975208;28;20024;-74
2022/08/07 07:49:12;;;;;;;;;;;16.60;99.90;;;;;;4975247;28;19922;-72
2022/08/07 07:51:38;;;;;;;;;;;17.00;99.90;;;;;;4968451;28;19917;-73
2022/08/07 07:54:04;;;;;;;;;;;17.70;99.90;;;;;;4966526;28;20395;-74
2022/08/07 07:56:30;;;;;;;;;;;18.80;99.90;;;;;;4972352;28;19914;-73
2022/08/07 07:58:57;;;;;;;;;;;24.00;99.90;;;;;;4971822;28;19998;-74
2022/08/07 08:01:23;;;;;;;;;;;27.50;94.50;;;;;;4963129;28;20423;-73
2022/08/07 08:03:49;;;;;;;;;;;31.00;77.00;;;;;;4966824;28;19938;-73
2022/08/07 08:06:16;;;;;;;;;;;33.10;61.00;;;;;;4966305;28;20494;-72
2022/08/07 08:08:43;;;;;;;;;;;35.10;52.20;;;;;;4965878;28;19921;-71
2022/08/07 08:11:09;;;;;;;;;;;37.50;44.50;;;;;;4965338;28;19921;-70
2022/08/07 08:13:36;;;;;;;;;;;37.10;41.70;;;;;;4973167;28;19968;-71
2022/08/07 08:16:03;;;;;;;;;;;38.30;39.70;;;;;;4975546;28;20000;-71
2022/08/07 08:18:29;;;;;;;;;;;38.60;39.10;;;;;;4970128;28;20373;-71
2022/08/07 08:20:57;;;;;;;;;;;39.30;35.10;;;;;;4958306;28;19921;-71
2022/08/07 08:28:53;;;;;;;;;;;40.20;34.20;;;;;;4957842;28;19925;-71
2022/08/07 08:31:25;;;;;;;;;;;40.80;32.70;;;;;;4971528;28;19921;-72
2022/08/07 08:33:53;;;;;;;;;;;40.80;34.00;;;;;;4968182;28;19977;-71
2022/08/07 08:36:20;;;;;;;;;;;40.60;33.20;;;;;;4970399;28;19926;-71
2022/08/07 08:38:47;;;;;;;;;;;41.20;30.60;;;;;;4967614;28;20404;-71
2022/08/07 08:41:42;;;;;;;;;;;41.50;33.00;;;;;;4965807;28;19914;-75
2022/08/07 08:44:22;;;;;;;;;;;41.70;31.60;;;;;;4949273;28;19913;-71
2022/08/07 08:46:53;;;;;;;;;;;41.70;30.60;;;;;;4975206;28;20645;-72
2022/08/07 08:49:23;;;;;;;;;;;41.80;30.50;;;;;;4976584;28;19996;-72
2022/08/07 08:51:52;;;;;;;;;;;42.00;29.10;;;;;;4977831;28;19914;-72
2022/08/07 08:54:53;;;;;;;;;;;41.80;30.30;;;;;;4975901;28;20008;-72
2022/08/07 08:57:25;;;;;;;;;;;41.10;31.40;;;;;;4875562;29;19919;-72
2022/08/07 09:00:10;;;;;;;;;;;40.00;29.10;;;;;;4952027;28;19967;-72
2022/08/07 09:02:48;;;;;;;;;;;40.10;29.90;;;;;;4956290;28;19988;-72
2022/08/07 09:05:16;;;;;;;;;;;40.50;28.90;;;;;;4974890;28;20000;-72
2022/08/07 09:07:45;;;;;;;;;;;40.40;28.10;;;;;;4974434;28;20305;-72
2022/08/07 09:10:16;;;;;;;;;;;39.50;30.00;;;;;;4976317;28;19991;-72
2022/08/07 09:12:42;;;;;;;;;;;39.80;28.50;;;;;;4977028;28;20381;-72
2022/08/07 09:15:11;;;;;;;;;;;39.20;29.70;;;;;;4975966;28;19913;-72
2022/08/07 09:17:57;;;;;;;;;;;38.60;28.90;;;;;;4976250;28;19916;-73
2022/08/07 09:20:31;;;;;;;;;;;39.30;27.40;;;;;;4972696;28;19922;-72
2022/08/07 09:22:57;;;;;;;;;;;39.20;27.30;;;;;;4973043;28;19972;-73
2022/08/07 09:25:31;;;;;;;;;;;38.90;27.50;;;;;;4971064;28;19913;-72
2022/08/07 09:27:56;;;;;;;;;;;38.30;27.90;;;;;;4971351;28;20141;-72
2022/08/07 09:30:23;;;;;;;;;;;38.40;29.10;;;;;;4975225;28;19917;-72
2022/08/07 09:32:48;;;;;;;;;;;37.60;27.40;;;;;;4958536;28;20284;-71
2022/08/07 09:35:20;;;;;;;;;;;38.00;28.10;;;;;;4969624;28;19948;-72
2022/08/07 09:38:16;;;;;;;;;;;37.20;27.80;;;;;;4971433;28;19925;-73
2022/08/07 09:40:42;;;;;;;;;;;37.90;28.70;;;;;;4927588;28;19913;-73
2022/08/07 09:43:07;;;;;;;;;;;37.90;28.40;;;;;;4973225;28;19933;-71
2022/08/07 09:45:41;;;;;;;;;;;37.30;27.30;;;;;;4971302;28;19913;-72
2022/08/07 09:48:16;;;;;;;;;;;36.70;29.30;;;;;;4962203;28;19916;-73
2022/08/07 09:51:00;;;;;;;;;;;36.50;28.20;;;;;;4970050;28;19982;-73
2022/08/07 09:53:27;;;;;;;;;;;37.10;29.20;;;;;;4975429;28;19918;-73
2022/08/07 09:56:12;;;;;;;;;;;36.90;29.40;;;;;;4975243;28;19984;-72
2022/08/07 09:58:44;;;;;;;;;;;36.30;29.50;;;;;;4975429;28;19913;-73
2022/08/07 10:01:14;;;;;;;;;;;36.60;29.40;;;;;;4975040;28;19925;-73
2022/08/07 10:03:58;;;;;;;;;;;36.70;28.10;;;;;;4968716;28;19917;-73
2022/08/07 10:06:42;;;;;;;;;;;36.60;28.70;;;;;;4974406;28;20258;-73
2022/08/07 10:09:18;;;;;;;;;;;36.70;28.40;;;;;;4972181;28;19989;-73
2022/08/07 10:12:02;;;;;;;;;;;37.10;29.30;;;;;;4970532;28;19914;-73
2022/08/07 10:14:39;;;;;;;;;;;36.00;30.00;;;;;;4968643;28;19921;-73
2022/08/07 10:17:11;;;;;;;;;;;36.60;28.90;;;;;;4974602;28;19921;-73
2022/08/07 10:19:45;;;;;;;;;;;36.20;29.50;;;;;;4973406;28;19909;-73
2022/08/07 10:22:25;;;;;;;;;;;36.60;29.40;;;;;;4972393;28;20283;-73
2022/08/07 10:25:09;;;;;;;;;;;36.20;30.40;;;;;;4967899;28;20819;-73
2022/08/07 10:27:35;;;;;;;;;;;37.00;28.20;;;;;;4974080;28;20351;-73
2022/08/07 10:30:02;;;;;;;;;;;36.70;30.40;;;;;;4953077;28;19941;-73
2022/08/07 10:32:34;;;;;;;;;;;36.80;30.20;;;;;;4972368;28;20284;-74
2022/08/07 10:35:08;;;;;;;;;;;36.90;28.30;;;;;;4969595;28;20501;-73
2022/08/07 10:37:44;;;;;;;;;;;36.70;29.50;;;;;;4976432;28;20333;-73
2022/08/07 10:40:19;;;;;;;;;;;36.80;27.60;;;;;;4976183;28;19961;-73
2022/08/07 10:43:03;;;;;;;;;;;36.40;28.60;;;;;;4976991;28;19910;-73
2022/08/07 10:45:41;;;;;;;;;;;36.90;30.30;;;;;;4974538;28;19914;-73
2022/08/07 10:48:13;;;;;;;;;;;36.50;28.10;;;;;;4976719;28;20379;-73
2022/08/07 10:50:51;;;;;;;;;;;35.90;31.50;;;;;;4974775;28;19917;-73
2022/08/07 10:53:16;;;;;;;;;;;36.30;29.50;;;;;;4943195;28;19924;-73
2022/08/07 10:55:42;;;;;;;;;;;36.50;27.60;;;;;;4965113;28;20138;-73
2022/08/07 10:58:07;;;;;;;;;;;36.20;27.80;;;;;;4969951;28;20011;-73
2022/08/07 11:00:35;;;;;;;;;;;35.80;28.60;;;;;;4972114;28;20320;-73
2022/08/07 11:03:06;;;;;;;;;;;36.20;28.70;;;;;;4970843;28;20076;-73
2022/08/07 11:05:47;;;;;;;;;;;36.20;27.90;;;;;;4975390;28;19914;-73
2022/08/07 11:08:25;;;;;;;;;;;35.70;28.90;;;;;;4976965;28;19910;-74
2022/08/07 11:10:58;;;;;;;;;;;35.70;29.20;;;;;;4972103;28;19913;-73
2022/08/07 11:13:42;;;;;;;;;;;35.70;29.70;;;;;;4974428;28;20370;-73
2022/08/07 11:16:10;;;;;;;;;;;35.20;30.10;;;;;;4957713;28;19917;-73
2022/08/07 11:18:41;;;;;;;;;;;35.30;30.60;;;;;;4972594;28;19921;-73
2022/08/07 11:21:13;;;;;;;;;;;35.80;29.00;;;;;;4955708;28;19913;-73
2022/08/07 11:23:39;;;;;;;;;;;35.50;28.60;;;;;;4960128;28;19913;-73
2022/08/07 11:26:13;;;;;;;;;;;35.60;29.10;;;;;;4973092;28;19914;-74
2022/08/07 11:28:42;;;;;;;;;;;35.40;27.80;;;;;;4964330;28;20348;-74
2022/08/07 11:31:26;;;;;;;;;;;35.30;30.00;;;;;;4951117;28;19909;-73
2022/08/07 11:34:06;;;;;;;;;;;35.30;30.70;;;;;;4975945;28;19929;-73
2022/08/07 11:36:55;;;;;;;;;;;34.90;30.00;;;;;;4975232;28;19956;-73
2022/08/07 11:39:24;;;;;;;;;;;34.70;28.90;;;;;;4919818;28;19976;-73
2022/08/07 11:41:56;;;;;;;;;;;33.80;32.40;;;;;;4969958;28;19920;-73
2022/08/07 11:44:27;;;;;;;;;;;33.50;32.80;;;;;;4971462;28;19918;-73
2022/08/07 11:47:12;;;;;;;;;;;33.20;32.90;;;;;;4969681;28;19914;-73
2022/08/07 11:50:02;;;;;;;;;;;33.00;32.50;;;;;;4972407;28;19914;-74
2022/08/07 11:52:41;;;;;;;;;;;32.20;33.10;;;;;;4964395;28;20076;-74
2022/08/07 11:55:25;;;;;;;;;;;32.00;34.10;;;;;;4976069;28;19922;-72
2022/08/07 11:58:03;;;;;;;;;;;32.00;31.30;;;;;;4967009;28;19968;-73
2022/08/07 12:00:37;;;;;;;;;;;31.30;33.90;;;;;;4977561;28;20337;-73
2022/08/07 12:03:21;;;;;;;;;;;31.00;33.10;;;;;;4975903;28;19914;-73
2022/08/07 12:05:59;;;;;;;;;;;30.70;37.30;;;;;;4970338;28;19952;-73
2022/08/07 12:08:30;;;;;;;;;;;30.40;37.90;;;;;;4964368;28;19913;-73
2022/08/07 12:11:05;;;;;;;;;;;30.40;42.90;;;;;;4975899;28;20012;-73
2022/08/07 12:13:41;;;;;;;;;;;30.60;41.10;;;;;;4978766;28;19985;-73
2022/08/07 12:16:39;;;;;;;;;;;30.50;40.30;;;;;;4977918;28;19914;-73
2022/08/07 12:19:15;;;;;;;;;;;30.60;42.50;;;;;;4934982;28;19910;-73
2022/08/07 12:22:04;;;;;;;;;;;30.50;41.60;;;;;;4977718;28;20005;-73
2022/08/07 12:24:33;;;;;;;;;;;30.70;40.90;;;;;;4961586;28;19917;-73
2022/08/07 12:26:59;;;;;;;;;;;30.60;43.20;;;;;;4976857;28;19972;-73
2022/08/07 12:29:27;;;;;;;;;;;30.60;42.40;;;;;;4976536;28;20035;-73
2022/08/07 12:31:59;;;;;;;;;;;30.50;42.00;;;;;;4977085;28;20542;-73
2022/08/07 12:34:26;;;;;;;;;;;30.20;40.40;;;;;;4975306;28;20060;-72
2022/08/07 12:36:52;;;;;;;;;;;29.80;41.10;;;;;;4977115;28;19918;-73
2022/08/07 12:39:19;;;;;;;;;;;29.60;41.80;;;;;;4977345;28;19918;-73
2022/08/07 12:41:45;;;;;;;;;;;29.60;42.90;;;;;;4973113;28;19924;-73
2022/08/07 12:44:12;;;;;;;;;;;29.70;44.20;;;;;;4974193;28;20480;-73
2022/08/07 12:46:47;;;;;;;;;;;29.90;44.40;;;;;;4976981;28;19945;-72
2022/08/07 12:49:32;;;;;;;;;;;29.50;42.20;;;;;;4977855;28;20289;-73
2022/08/07 12:52:01;;;;;;;;;;;29.10;43.40;;;;;;4965311;28;20381;-73
2022/08/07 12:54:33;;;;;;;;;;;28.60;45.10;;;;;;4960805;28;19917;-72
2022/08/07 12:57:00;;;;;;;;;;;28.60;47.20;;;;;;4977764;28;19921;-72
2022/08/07 12:59:27;;;;;;;;;;;28.50;47.00;;;;;;4974217;28;20001;-73
2022/08/07 13:02:12;;;;;;;;;;;28.60;44.20;;;;;;4973406;28;20089;-73
2022/08/07 13:04:46;;;;;;;;;;;28.50;45.10;;;;;;4970778;28;19914;-72
2022/08/07 13:07:27;;;;;;;;;;;28.60;48.00;;;;;;4973913;28;20035;-73
2022/08/07 13:09:55;;;;;;;;;;;29.00;46.20;;;;;;4971046;28;19975;-73
2022/08/07 13:12:36;;;;;;;;;;;29.20;46.20;;;;;;4972989;28;19925;-73
2022/08/07 13:15:10;;;;;;;;;;;29.20;44.10;;;;;;4972660;28;20040;-73
2022/08/07 13:17:54;;;;;;;;;;;29.20;45.10;;;;;;4973683;28;19914;-73
2022/08/07 13:20:40;;;;;;;;;;;29.30;47.00;;;;;;4957826;28;19976;-72
2022/08/07 13:23:05;;;;;;;;;;;29.00;44.10;;;;;;4976034;28;20016;-72
2022/08/07 13:25:38;;;;;;;;;;;28.50;43.90;;;;;;4958490;28;20531;-72
2022/08/07 13:28:09;;;;;;;;;;;28.20;47.00;;;;;;4969597;28;19910;-72
2022/08/07 13:30:37;;;;;;;;;;;28.20;47.20;;;;;;4973669;28;19914;-72
2022/08/07 13:33:08;;;;;;;;;;;28.10;47.30;;;;;;4972762;28;20288;-72
2022/08/07 13:35:42;;;;;;;;;;;28.10;46.80;;;;;;4976139;28;19917;-72
2022/08/07 13:38:14;;;;;;;;;;;27.90;44.60;;;;;;4959916;28;19975;-72
2022/08/07 13:40:47;;;;;;;;;;;27.70;46.00;;;;;;4628473;28;9999892;-72
2022/08/07 13:43:14;;;;;;;;;;;27.60;49.60;;;;;;4959468;28;20432;-72
2022/08/07 13:45:42;;;;;;;;;;;27.60;49.30;;;;;;4976306;28;20388;-72
2022/08/07 13:48:09;;;;;;;;;;;27.50;49.40;;;;;;4975197;28;19944;-72
2022/08/07 13:50:37;;;;;;;;;;;27.40;49.20;;;;;;4974428;28;19921;-72
2022/08/07 13:53:02;;;;;;;;;;;27.40;48.30;;;;;;4975593;28;19928;-72
2022/08/07 13:55:29;;;;;;;;;;;27.30;47.30;;;;;;4955433;28;19917;-72
2022/08/07 14:00:51;;;;;;;;;;;26.90;48.50;;;;;;4973346;28;20041;-71
2022/08/07 14:03:18;;;;;;;;;;;27.10;48.10;;;;;;4973062;28;19913;-71
2022/08/07 14:05:45;;;;;;;;;;;27.00;48.60;;;;;;4968512;28;19995;-72
2022/08/07 14:08:11;;;;;;;;;;;27.00;47.20;;;;;;4967716;28;20353;-72
2022/08/07 14:10:38;;;;;;;;;;;27.00;49.00;;;;;;4953989;28;20094;-72
2022/08/07 14:13:04;;;;;;;;;;;27.30;49.10;;;;;;4975236;28;20395;-72
2022/08/07 14:15:41;;;;;;;;;;;27.40;47.60;;;;;;4970186;28;20390;-72
2022/08/07 14:20:29;;;;;;;;;;;27.50;44.70;;;;;;5020280;27;2230899;-71
2022/08/07 14:23:00;;;;;;;;;;;27.40;47.00;;;;;;5098506;28;19923;-71
2022/08/07 14:25:28;;;;;;;;;;;27.20;46.20;;;;;;5092140;28;20661;-71
2022/08/07 14:27:54;;;;;;;;;;;27.10;48.50;;;;;;5094832;28;20007;-69
2022/08/07 14:30:20;;;;;;;;;;;26.90;49.90;;;;;;5073753;28;20265;-71
2022/08/07 14:33:00;;;;;;;;;;;26.90;48.40;;;;;;5088997;28;19916;-71
2022/08/07 14:35:29;;;;;;;;;;;27.10;48.00;;;;;;5094244;28;19916;-72
2022/08/07 14:37:55;;;;;;;;;;;27.20;48.20;;;;;;5096338;28;19916;-72
2022/08/07 14:40:22;;;;;;;;;;;27.00;49.40;;;;;;5094994;28;20239;-72
2022/08/07 14:42:59;;;;;;;;;;;26.90;50.00;;;;;;5095229;28;19919;-72